createdAt,value
2022-11-03T00:23:55.014Z,6.82
2022-11-03T00:38:46.625Z,6.02
2022-11-03T00:53:43.564Z,6.09
2022-11-03T01:08:38.857Z,5.73
2022-11-03T01:23:30.093Z,5.42
2022-11-03T01:38:20.710Z,5.32
2022-11-03T01:53:10.950Z,4.79
2022-11-03T02:08:14.149Z,4.84
2022-11-03T02:23:18.563Z,3.98
2022-11-03T02:38:13.944Z,3.84
2022-11-03T02:53:06.060Z,3.79
2022-11-03T03:07:57.299Z,3.92
2022-11-03T03:22:48.118Z,4.04
2022-11-03T03:37:44.015Z,3.59
2022-11-03T03:52:35.023Z,3.90
2022-11-03T04:07:45.124Z,4.43
2022-11-03T04:22:38.505Z,3.89
2022-11-03T04:37:29.422Z,3.67
2022-11-03T04:52:21.833Z,4.01
2022-11-03T05:07:26.321Z,3.53
2022-11-03T05:22:22.103Z,3.80
2022-11-03T05:37:36.076Z,4.43
2022-11-03T05:52:33.283Z,3.97
2022-11-03T06:07:29.938Z,3.87
2022-11-03T06:22:27.249Z,4.40
2022-11-03T06:37:22.286Z,5.28
2022-11-03T06:52:32.438Z,4.34
2022-11-03T07:07:30.050Z,5.07
2022-11-03T07:22:21.854Z,4.94
2022-11-03T07:37:18.960Z,4.52
2022-11-03T07:52:15.030Z,4.78
2022-11-03T08:07:07.139Z,5.30
2022-11-03T08:21:59.709Z,4.97
2022-11-03T08:36:52.487Z,5.62
2022-11-03T08:51:45.238Z,6.11
2022-11-03T09:06:37.506Z,5.68
2022-11-03T09:21:30.168Z,6.34
2022-11-03T09:36:21.929Z,6.38
2022-11-03T09:51:13.450Z,6.72
2022-11-03T10:06:06.271Z,6.49
2022-11-03T10:20:57.359Z,6.94
2022-11-03T10:35:48.562Z,6.14
2022-11-03T10:50:40.887Z,6.17
2022-11-03T11:05:31.783Z,6.16
2022-11-03T11:20:32.630Z,4.57
2022-11-03T11:35:29.562Z,4.61
2022-11-03T11:50:23.476Z,4.02
2022-11-03T12:05:18.080Z,4.01
2022-11-03T12:20:35.081Z,5.73
2022-11-03T12:35:32.275Z,6.24
2022-11-03T12:50:24.138Z,4.53
2022-11-03T13:05:15.782Z,4.62
2022-11-03T13:20:07.220Z,4.48
2022-11-03T13:34:59.749Z,3.83
2022-11-03T13:50:13.098Z,4.07
2022-11-03T14:19:45.945Z,3.94
2022-11-03T14:34:32.248Z,3.76
2022-11-03T15:04:15.289Z,4.76
2022-11-03T15:19:06.702Z,4.29
2022-11-03T16:03:40.186Z,4.90
2022-11-03T16:18:30.972Z,5.43
2022-11-03T16:33:22.085Z,6.01
2022-11-03T16:48:13.299Z,6.31
2022-11-03T17:03:05.026Z,7.07
2022-11-03T17:17:56.047Z,7.63
2022-11-03T17:32:47.256Z,7.97
2022-11-03T17:47:38.642Z,7.59
2022-11-03T18:02:31.170Z,9.00
2022-11-03T18:17:23.207Z,8.44
2022-11-03T18:32:14.806Z,8.37
2022-11-03T18:47:06.750Z,9.62
2022-11-03T19:01:58.060Z,8.84
2022-11-03T19:17:02.198Z,8.51
2022-11-03T19:31:42.003Z,10.97
2022-11-03T19:46:33.843Z,11.54
2022-11-03T20:01:25.918Z,11.17
2022-11-03T20:16:18.209Z,11.52
2022-11-03T20:31:10.097Z,10.58
2022-11-03T20:46:02.561Z,9.47
2022-11-03T21:00:56.250Z,8.59
2022-11-03T21:16:23.539Z,9.96
2022-11-03T21:31:04.049Z,6.10
2022-11-03T21:45:55.363Z,3.89
2022-11-03T22:00:46.655Z,2.79
2022-11-03T22:15:57.891Z,2.00
2022-11-03T22:31:12.455Z,2.97
2022-11-03T22:46:10.078Z,2.07
2022-11-03T23:01:07.213Z,1.84
2022-11-03T23:16:08.872Z,1.87
2022-11-03T23:31:04.184Z,1.63
2022-11-03T23:46:14.165Z,2.30
